Time;durP1;ratioP1;P1;durP2;ratioP2;P2;SDS_P1;SDS_P2;PMS_P1;PMS_P2;Temp;Humidity;BMP_temperature;BMP_pressure;BME280_temperature;BME280_humidity;BME280_pressure;Samples;Min_cycle;Max_cycle;Signal;HPM_P1;HPM_P2
2021/10/01 00:02:08;;;;;;;2.13;0.98;;;18.20;50.10;;;;;;5013775;28;20225;-54
2021/10/01 00:04:38;;;;;;;2.75;1.33;;;18.20;50.00;;;;;;5014282;28;20240;-49
2021/10/01 00:07:09;;;;;;;3.40;1.00;;;18.20;49.90;;;;;;5013844;28;20247;-51
2021/10/01 00:09:42;;;;;;;1.65;1.02;;;18.30;49.90;;;;;;5013482;28;20219;-51
2021/10/01 00:12:17;;;;;;;2.60;1.00;;;18.30;49.80;;;;;;5013620;28;20261;-50
2021/10/01 00:14:48;;;;;;;1.92;1.02;;;18.30;49.70;;;;;;5013633;28;20228;-51
2021/10/01 00:17:19;;;;;;;3.05;1.20;;;18.40;49.70;;;;;;5013935;28;20334;-50
2021/10/01 00:19:52;;;;;;;1.92;0.73;;;18.40;49.60;;;;;;5013619;28;20221;-51
2021/10/01 00:22:22;;;;;;;1.35;0.93;;;18.40;50.10;;;;;;5013665;28;20204;-47
2021/10/01 00:24:54;;;;;;;1.42;0.93;;;18.40;49.30;;;;;;5013486;28;20243;-52
2021/10/01 00:27:25;;;;;;;1.48;0.80;;;18.40;49.30;;;;;;5013648;28;20232;-50
2021/10/01 00:29:55;;;;;;;2.00;1.13;;;18.50;49.20;;;;;;5013524;28;20263;-51
2021/10/01 00:32:26;;;;;;;1.10;0.70;;;18.50;49.10;;;;;;5012705;28;20220;-49
2021/10/01 00:34:56;;;;;;;1.55;0.90;;;18.50;49.00;;;;;;5012793;28;20271;-49
2021/10/01 00:37:27;;;;;;;1.65;0.85;;;18.50;48.90;;;;;;5012850;28;20288;-42
2021/10/01 00:39:59;;;;;;;1.00;0.70;;;18.60;48.90;;;;;;5012659;28;20303;-48
2021/10/01 00:42:30;;;;;;;1.73;1.05;;;18.60;48.80;;;;;;5012440;28;20229;-47
2021/10/01 00:45:00;;;;;;;1.90;0.90;;;18.60;48.70;;;;;;5012700;28;20197;-49
2021/10/01 00:47:30;;;;;;;1.88;0.93;;;18.60;49.30;;;;;;5013000;28;20228;-49
2021/10/01 00:50:01;;;;;;;1.52;0.68;;;18.60;48.60;;;;;;5013022;28;20299;-48
2021/10/01 00:52:31;;;;;;;2.88;0.98;;;18.60;48.60;;;;;;5012804;28;20235;-51
2021/10/01 00:55:04;;;;;;;2.00;0.60;;;18.70;48.50;;;;;;5013010;28;20315;-48
2021/10/01 00:57:34;;;;;;;1.58;0.95;;;18.70;48.40;;;;;;5012508;28;20233;-48
2021/10/01 01:00:04;;;;;;;1.50;0.82;;;18.70;48.30;;;;;;5012547;28;20304;-50
2021/10/01 01:02:35;;;;;;;1.13;0.60;;;18.80;48.30;;;;;;5012703;28;20201;-44
2021/10/01 01:05:06;;;;;;;1.65;0.90;;;18.80;48.30;;;;;;5012938;28;20305;-51
2021/10/01 01:07:39;;;;;;;1.13;0.73;;;18.80;48.20;;;;;;5012578;28;20243;-46
2021/10/01 01:10:15;;;;;;;1.02;0.80;;;18.80;48.10;;;;;;5012439;28;20217;-44
2021/10/01 01:12:48;;;;;;;1.00;0.68;;;18.80;48.00;;;;;;5012505;28;20196;-51
2021/10/01 01:15:20;;;;;;;1.90;0.90;;;18.90;47.90;;;;;;5012389;28;20267;-47
2021/10/01 01:17:53;;;;;;;1.40;0.73;;;18.90;47.80;;;;;;5011990;28;20244;-47
2021/10/01 01:20:28;;;;;;;2.92;0.90;;;18.90;47.70;;;;;;5012341;28;20677;-48
2021/10/01 01:23:15;;;;;;;1.55;0.82;;;18.90;47.60;;;;;;5012003;28;20279;-50
2021/10/01 01:26:09;;;;;;;1.75;0.77;;;18.90;47.40;;;;;;5012130;28;20212;-49
2021/10/01 01:28:46;;;;;;;1.42;0.77;;;18.90;47.30;;;;;;5012406;28;20255;-46
2021/10/01 01:31:21;;;;;;;2.00;0.73;;;19.00;47.40;;;;;;5012730;28;20228;-47
2021/10/01 01:33:53;;;;;;;2.47;0.80;;;19.00;47.30;;;;;;5012239;28;20251;-45
2021/10/01 01:36:24;;;;;;;0.98;0.60;;;19.00;47.20;;;;;;5012573;28;20612;-50
2021/10/01 01:38:55;;;;;;;1.67;0.88;;;19.00;47.10;;;;;;5011379;28;20700;-45
2021/10/01 01:41:25;;;;;;;1.17;0.65;;;19.00;47.10;;;;;;5011980;28;20236;-44
2021/10/01 01:43:56;;;;;;;1.23;0.60;;;19.00;47.10;;;;;;5011879;28;20299;-43
2021/10/01 01:46:27;;;;;;;2.50;0.98;;;19.10;47.00;;;;;;5011886;28;20279;-48
2021/10/01 01:48:59;;;;;;;1.40;0.82;;;19.10;47.00;;;;;;5012192;28;20248;-47
2021/10/01 01:51:29;;;;;;;1.00;0.63;;;19.10;46.80;;;;;;5011427;28;20197;-40
2021/10/01 01:54:00;;;;;;;1.08;0.70;;;19.10;46.70;;;;;;5011150;28;20248;-50
2021/10/01 01:56:31;;;;;;;0.80;0.60;;;19.20;46.60;;;;;;5012146;28;20255;-48
2021/10/01 01:59:02;;;;;;;1.67;0.80;;;19.20;46.40;;;;;;5011433;28;20209;-51
2021/10/01 02:01:33;;;;;;;1.55;0.50;;;19.20;46.30;;;;;;5010662;28;20239;-44
2021/10/01 02:04:05;;;;;;;1.02;0.70;;;19.20;46.20;;;;;;4992218;28;20202;-45
2021/10/01 02:06:36;;;;;;;1.50;0.80;;;19.20;46.10;;;;;;4992178;28;20736;-46
2021/10/01 02:09:06;;;;;;;0.93;0.50;;;19.20;46.00;;;;;;5009243;28;20229;-51
2021/10/01 02:11:37;;;;;;;1.75;0.70;;;19.30;46.00;;;;;;5011824;28;20232;-48
2021/10/01 02:14:07;;;;;;;0.80;0.50;;;19.30;45.90;;;;;;5011949;28;20322;-50
2021/10/01 02:16:38;;;;;;;1.90;0.75;;;19.30;45.80;;;;;;5011742;28;20224;-47
2021/10/01 02:19:10;;;;;;;1.52;0.75;;;19.30;45.70;;;;;;5011540;28;20240;-49
2021/10/01 02:21:40;;;;;;;1.42;0.60;;;19.30;45.70;;;;;;5011660;28;20337;-46
2021/10/01 02:24:11;;;;;;;1.35;0.70;;;19.30;45.60;;;;;;5011526;28;20306;-53
2021/10/01 02:26:44;;;;;;;1.30;0.68;;;19.40;45.70;;;;;;5011577;28;20280;-48
2021/10/01 02:29:17;;;;;;;2.10;0.90;;;19.40;45.70;;;;;;5011316;28;20217;-49
2021/10/01 02:31:58;;;;;;;1.83;0.65;;;19.40;45.60;;;;;;5011448;28;20727;-51
2021/10/01 02:34:34;;;;;;;1.42;0.75;;;19.40;45.60;;;;;;5010570;28;20283;-49
2021/10/01 02:37:05;;;;;;;1.33;0.82;;;19.50;45.60;;;;;;5011428;28;20204;-53
2021/10/01 02:39:36;;;;;;;1.17;0.65;;;19.50;45.60;;;;;;5011342;28;20725;-43
2021/10/01 02:42:07;;;;;;;3.10;0.80;;;19.50;45.60;;;;;;5011601;28;20679;-50
2021/10/01 02:44:37;;;;;;;2.35;0.77;;;19.50;45.50;;;;;;5011098;28;20628;-48
2021/10/01 02:47:08;;;;;;;1.08;0.60;;;19.60;45.40;;;;;;5010695;28;20197;-48
2021/10/01 02:49:40;;;;;;;1.45;0.65;;;19.60;45.40;;;;;;5011089;28;20271;-50
2021/10/01 02:52:14;;;;;;;1.42;0.60;;;19.60;45.40;;;;;;5010915;28;20232;-47
2021/10/01 02:54:48;;;;;;;0.98;0.60;;;19.60;45.30;;;;;;5010751;28;20242;-48
2021/10/01 02:57:20;;;;;;;1.42;0.60;;;19.60;45.90;;;;;;5011005;28;20290;-49
2021/10/01 02:59:50;;;;;;;2.42;0.73;;;19.60;45.30;;;;;;5011180;28;20277;-52
2021/10/01 03:02:21;;;;;;;1.55;0.60;;;19.70;45.30;;;;;;5011476;28;20715;-44
2021/10/01 03:04:56;;;;;;;1.58;0.60;;;19.70;45.30;;;;;;5013452;28;20711;-50
2021/10/01 03:07:26;;;;;;;1.63;0.73;;;19.70;45.30;;;;;;5014596;28;20235;-52
2021/10/01 03:09:56;;;;;;;2.08;0.70;;;19.80;45.40;;;;;;5014133;28;20299;-48
2021/10/01 03:12:31;;;;;;;1.67;0.63;;;19.80;45.40;;;;;;5014780;28;20228;-50
2021/10/01 03:15:02;;;;;;;0.60;0.45;;;19.80;45.40;;;;;;5014510;28;20255;-47
2021/10/01 03:17:33;;;;;;;1.02;0.68;;;19.80;45.40;;;;;;5014697;28;20228;-48
2021/10/01 03:20:05;;;;;;;1.98;0.80;;;19.80;45.30;;;;;;5014660;28;20255;-48
2021/10/01 03:22:36;;;;;;;1.85;0.70;;;19.90;45.30;;;;;;5014730;28;20235;-49
2021/10/01 03:25:07;;;;;;;0.88;0.57;;;19.90;45.30;;;;;;5014643;28;20255;-51
2021/10/01 03:27:37;;;;;;;2.67;0.70;;;19.90;45.20;;;;;;5014336;28;20201;-50
2021/10/01 03:30:08;;;;;;;1.55;0.70;;;19.90;45.10;;;;;;5014020;28;20213;-47
2021/10/01 03:32:39;;;;;;;1.08;0.60;;;19.90;45.20;;;;;;5014728;28;20239;-44
2021/10/01 03:35:12;;;;;;;2.70;0.73;;;20.00;45.20;;;;;;5014588;28;20291;-47
2021/10/01 03:37:43;;;;;;;1.48;0.77;;;20.00;45.20;;;;;;5014351;28;20631;-49
2021/10/01 03:40:14;;;;;;;1.20;0.80;;;20.00;45.10;;;;;;5014185;28;20731;-49
2021/10/01 03:42:45;;;;;;;1.45;0.90;;;20.00;45.20;;;;;;5014340;28;20228;-44
2021/10/01 03:45:15;;;;;;;1.60;0.70;;;20.00;45.20;;;;;;5014311;28;20633;-45
2021/10/01 03:47:45;;;;;;;1.60;0.90;;;20.10;45.30;;;;;;5013779;28;20279;-50
2021/10/01 03:50:18;;;;;;;2.53;0.70;;;20.10;45.30;;;;;;5014177;28;20252;-46
2021/10/01 03:52:48;;;;;;;1.45;0.75;;;20.10;45.20;;;;;;5013950;28;20220;-44
2021/10/01 03:55:22;;;;;;;1.65;0.65;;;20.20;45.30;;;;;;5013874;28;20762;-50
2021/10/01 03:57:52;;;;;;;2.35;0.68;;;20.20;45.40;;;;;;5013809;28;20201;-47
2021/10/01 04:00:24;;;;;;;1.30;0.52;;;20.20;45.40;;;;;;5013617;28;20263;-43
2021/10/01 04:02:54;;;;;;;1.77;0.82;;;20.20;45.40;;;;;;5013676;28;20197;-51
2021/10/01 04:05:26;;;;;;;1.77;0.70;;;20.30;45.40;;;;;;5013503;28;20196;-47
2021/10/01 04:07:57;;;;;;;2.67;0.70;;;20.30;45.10;;;;;;5013185;28;20696;-46
2021/10/01 04:10:27;;;;;;;3.97;1.00;;;20.30;45.10;;;;;;5013490;28;20251;-48
2021/10/01 04:12:58;;;;;;;1.30;0.85;;;20.30;45.10;;;;;;5014084;28;20243;-44
2021/10/01 04:15:28;;;;;;;1.35;0.60;;;20.30;45.10;;;;;;5012921;28;20271;-46
2021/10/01 04:17:58;;;;;;;2.25;0.90;;;20.40;45.20;;;;;;5013654;28;20251;-51
2021/10/01 04:20:33;;;;;;;1.63;0.70;;;20.40;45.20;;;;;;5013502;28;20666;-45
2021/10/01 04:23:03;;;;;;;1.65;0.75;;;20.40;45.20;;;;;;5013382;28;20649;-46
2021/10/01 04:25:33;;;;;;;1.48;0.75;;;20.40;45.20;;;;;;5013610;28;20288;-45
2021/10/01 04:28:05;;;;;;;2.03;0.85;;;20.40;45.20;;;;;;5013687;28;20442;-46
2021/10/01 04:30:42;;;;;;;1.20;0.90;;;20.40;45.20;;;;;;5013056;28;20693;-47
2021/10/01 04:33:20;;;;;;;2.13;0.95;;;20.40;45.30;;;;;;5012727;28;20635;-50
2021/10/01 04:35:53;;;;;;;1.38;0.80;;;20.50;45.30;;;;;;5012892;28;20228;-49
2021/10/01 04:38:23;;;;;;;1.42;0.75;;;20.50;45.30;;;;;;5013026;28;20616;-45
2021/10/01 04:40:53;;;;;;;1.30;0.80;;;20.50;45.30;;;;;;5013083;28;20708;-48
2021/10/01 04:43:24;;;;;;;2.90;0.90;;;20.50;45.20;;;;;;5013270;28;20567;-47
2021/10/01 04:45:56;;;;;;;1.70;0.68;;;20.50;45.20;;;;;;5013315;28;20205;-52
2021/10/01 04:48:26;;;;;;;1.13;0.63;;;20.60;45.50;;;;;;5012842;28;20193;-51
2021/10/01 04:50:58;;;;;;;1.42;0.70;;;20.60;45.80;;;;;;5012642;28;20232;-48
2021/10/01 04:53:29;;;;;;;1.00;0.60;;;20.70;46.00;;;;;;5012973;28;20288;-53
2021/10/01 04:55:59;;;;;;;2.38;0.93;;;20.70;46.10;;;;;;5012594;28;20315;-43
2021/10/01 04:58:29;;;;;;;2.83;0.75;;;20.80;46.30;;;;;;5012592;28;20232;-47
2021/10/01 05:01:02;;;;;;;1.42;1.00;;;20.80;46.40;;;;;;5013121;28;20197;-47
2021/10/01 05:03:33;;;;;;;1.15;0.60;;;20.90;46.50;;;;;;5013023;28;20612;-45
2021/10/01 05:06:05;;;;;;;1.42;0.70;;;20.90;46.50;;;;;;5012797;28;20285;-49
2021/10/01 05:08:35;;;;;;;4.57;1.35;;;20.90;46.50;;;;;;5013107;28;20299;-43
2021/10/01 05:11:06;;;;;;;2.38;0.85;;;20.90;46.40;;;;;;5012717;28;20233;-48
2021/10/01 05:13:36;;;;;;;1.90;0.70;;;21.00;46.50;;;;;;5012561;28;20309;-48
2021/10/01 05:16:07;;;;;;;2.08;1.10;;;21.10;46.50;;;;;;5013146;28;20283;-48
2021/10/01 05:18:37;;;;;;;4.18;0.98;;;21.00;46.30;;;;;;5012628;28;20248;-48
2021/10/01 05:21:10;;;;;;;1.33;0.88;;;21.10;46.20;;;;;;5012535;28;20697;-43
2021/10/01 05:23:40;;;;;;;1.45;0.80;;;21.10;46.20;;;;;;5012480;28;20235;-44
2021/10/01 05:26:10;;;;;;;3.00;1.08;;;21.10;46.00;;;;;;5012228;28;20642;-48
2021/10/01 05:28:41;;;;;;;2.58;0.90;;;21.10;45.90;;;;;;5011508;28;20744;-45
2021/10/01 05:31:11;;;;;;;2.15;0.70;;;21.10;45.90;;;;;;5008751;28;20709;-48
2021/10/01 05:33:42;;;;;;;2.88;0.85;;;21.10;45.90;;;;;;4999168;28;20292;-44
2021/10/01 05:36:14;;;;;;;1.98;0.77;;;21.10;45.80;;;;;;5010989;28;20312;-48
2021/10/01 05:38:44;;;;;;;1.75;0.85;;;21.10;45.80;;;;;;5006152;28;20271;-48
2021/10/01 05:41:15;;;;;;;1.75;0.88;;;21.10;45.80;;;;;;5009495;28;20243;-46
2021/10/01 05:43:45;;;;;;;3.20;1.15;;;21.20;45.80;;;;;;4990857;28;20280;-47
2021/10/01 05:46:17;;;;;;;1.75;0.88;;;21.10;45.70;;;;;;4991781;28;20236;-45
2021/10/01 05:48:51;;;;;;;1.98;0.70;;;21.10;45.60;;;;;;4991736;28;20276;-51
2021/10/01 05:51:23;;;;;;;2.00;0.70;;;21.20;45.60;;;;;;4992839;28;20197;-45
2021/10/01 05:54:15;;;;;;;1.42;0.82;;;21.10;45.60;;;;;;5007120;28;20236;-48
2021/10/01 05:56:45;;;;;;;3.85;1.13;;;21.10;45.60;;;;;;5011670;28;20229;-55
2021/10/01 05:59:15;;;;;;;2.65;0.98;;;21.10;45.60;;;;;;5011156;28;20252;-51
2021/10/01 06:01:46;;;;;;;2.45;0.90;;;21.10;45.60;;;;;;5008407;28;20339;-48
2021/10/01 06:04:16;;;;;;;1.90;0.85;;;21.10;45.60;;;;;;5010312;28;20232;-46
2021/10/01 06:06:49;;;;;;;2.70;0.95;;;21.10;45.50;;;;;;5010605;28;20224;-43
2021/10/01 06:09:20;;;;;;;2.33;0.98;;;21.10;45.70;;;;;;5010834;28;20229;-49
2021/10/01 06:11:50;;;;;;;1.92;0.75;;;21.10;45.50;;;;;;5003304;28;20205;-52
2021/10/01 06:14:22;;;;;;;1.30;0.68;;;21.10;45.50;;;;;;5006307;28;20233;-45
2021/10/01 06:16:53;;;;;;;2.10;0.77;;;21.10;45.50;;;;;;5011839;28;20231;-51
2021/10/01 06:19:24;;;;;;;2.92;1.17;;;21.10;45.40;;;;;;5011350;28;20248;-43
2021/10/01 06:21:56;;;;;;;2.42;0.90;;;21.10;45.40;;;;;;5011679;28;20224;-52
2021/10/01 06:24:27;;;;;;;2.28;1.17;;;21.00;45.30;;;;;;5010780;28;20189;-46
2021/10/01 06:26:57;;;;;;;2.78;0.80;;;21.00;45.40;;;;;;5011410;28;20276;-48
2021/10/01 06:29:28;;;;;;;1.23;0.70;;;20.90;45.30;;;;;;5010973;28;20252;-51
2021/10/01 06:31:58;;;;;;;2.08;0.90;;;21.00;45.40;;;;;;5010908;28;20307;-48
2021/10/01 06:34:28;;;;;;;1.90;0.70;;;20.90;45.40;;;;;;5011231;28;20283;-51
2021/10/01 06:37:01;;;;;;;1.60;0.90;;;20.90;45.40;;;;;;5010756;28;20375;-46
2021/10/01 06:39:31;;;;;;;1.50;0.80;;;20.90;45.40;;;;;;5014165;28;20267;-44
2021/10/01 06:42:02;;;;;;;1.73;0.98;;;20.80;45.50;;;;;;5015241;28;20243;-52
2021/10/01 06:44:34;;;;;;;1.30;0.63;;;20.80;45.50;;;;;;5015278;28;20200;-50
2021/10/01 06:47:06;;;;;;;1.92;0.98;;;20.80;45.50;;;;;;5015001;28;20286;-43
2021/10/01 06:49:43;;;;;;;1.73;1.08;;;20.80;45.60;;;;;;5015401;28;20278;-46
2021/10/01 07:38:54;;;;;;;2.00;1.45;;;20.30;46.00;;;;;;4994635;28;20295;-44
2021/10/01 08:19:10;;;;;;;2.10;1.65;;;19.80;46.30;;;;;;5013069;28;20219;-46
2021/10/01 08:21:41;;;;;;;2.40;1.30;;;19.80;46.30;;;;;;5011469;28;20201;-41
2021/10/01 08:24:11;;;;;;;1.95;1.52;;;19.80;46.40;;;;;;4992392;28;20263;-46
2021/10/01 08:26:42;;;;;;;2.00;1.40;;;19.70;46.40;;;;;;5009516;28;20302;-47
2021/10/01 08:29:12;;;;;;;1.70;1.52;;;19.70;46.40;;;;;;5007099;28;20252;-42
2021/10/01 08:31:44;;;;;;;2.25;1.55;;;19.70;46.40;;;;;;5007174;28;20292;-43
2021/10/01 08:34:16;;;;;;;4.03;1.77;;;19.60;46.40;;;;;;5011906;28;20236;-46
2021/10/01 08:36:46;;;;;;;2.22;1.42;;;19.60;46.40;;;;;;5009963;28;20259;-45
2021/10/01 08:39:16;;;;;;;2.20;1.42;;;19.60;46.50;;;;;;5012467;28;20309;-43
2021/10/01 08:41:47;;;;;;;3.25;1.73;;;19.60;46.50;;;;;;5007539;28;20251;-40
2021/10/01 08:44:17;;;;;;;1.65;1.45;;;19.50;46.40;;;;;;5009424;28;20739;-44
2021/10/01 08:46:50;;;;;;;3.15;1.48;;;19.50;46.50;;;;;;5009897;28;20306;-44
2021/10/01 08:49:20;;;;;;;3.55;1.60;;;19.50;46.50;;;;;;5012272;28;20256;-42
2021/10/01 08:51:51;;;;;;;1.85;1.40;;;19.50;46.50;;;;;;5011718;28;20232;-43
2021/10/01 08:54:21;;;;;;;2.05;1.45;;;19.40;46.50;;;;;;5009881;28;20295;-43
2021/10/01 08:56:52;;;;;;;1.60;1.35;;;19.40;46.50;;;;;;5012389;28;20311;-44
2021/10/01 08:59:22;;;;;;;2.13;1.50;;;19.40;46.50;;;;;;5011821;28;20287;-41
2021/10/01 09:01:54;;;;;;;2.10;1.42;;;19.40;46.50;;;;;;5011943;28;20204;-44
2021/10/01 09:04:25;;;;;;;2.33;1.50;;;19.30;46.50;;;;;;5009358;28;20659;-43
2021/10/01 09:06:57;;;;;;;3.92;2.20;;;19.30;46.50;;;;;;5012621;28;20275;-43
2021/10/01 09:09:37;;;;;;;1.60;1.40;;;19.30;46.50;;;;;;5009053;28;20232;-45
2021/10/01 09:12:08;;;;;;;2.15;1.55;;;19.20;46.50;;;;;;5010765;28;20291;-43
2021/10/01 09:14:45;;;;;;;2.50;1.75;;;19.20;46.60;;;;;;5011746;28;20251;-41
2021/10/01 09:17:18;;;;;;;3.65;1.80;;;19.20;46.60;;;;;;5011933;28;20323;-48
2021/10/01 09:19:49;;;;;;;2.92;1.92;;;19.20;46.60;;;;;;5011322;28;20590;-48
2021/10/01 09:22:27;;;;;;;2.67;1.80;;;19.10;46.60;;;;;;5011047;28;20644;-47
2021/10/01 09:25:12;;;;;;;2.45;1.60;;;19.10;46.60;;;;;;5011441;28;20232;-50
2021/10/01 09:27:43;;;;;;;1.77;1.33;;;19.10;46.60;;;;;;5010803;28;20229;-49
2021/10/01 09:30:14;;;;;;;2.45;1.63;;;19.10;46.60;;;;;;5008269;28;20311;-49
2021/10/01 09:33:04;;;;;;;1.92;1.40;;;19.00;46.60;;;;;;5008800;28;20656;-46
2021/10/01 09:35:34;;;;;;;2.17;1.67;;;19.00;46.60;;;;;;5012518;28;20375;-45
2021/10/01 09:38:08;;;;;;;2.90;1.70;;;19.00;46.60;;;;;;5011535;28;20316;-45
2021/10/01 09:40:39;;;;;;;2.40;1.63;;;19.00;46.60;;;;;;5011440;28;20543;-43
2021/10/01 09:43:10;;;;;;;3.00;1.80;;;19.00;46.70;;;;;;4997095;28;20206;-40
2021/10/01 09:45:41;;;;;;;2.95;1.70;;;18.90;46.70;;;;;;4992037;28;20205;-43
2021/10/01 09:48:14;;;;;;;1.92;1.38;;;18.90;46.70;;;;;;4992164;28;20213;-45
2021/10/01 09:50:44;;;;;;;3.50;1.58;;;18.90;46.80;;;;;;4991884;28;20292;-45
2021/10/01 09:53:14;;;;;;;9.23;3.20;;;18.80;46.80;;;;;;4992192;28;20236;-46
2021/10/01 09:55:46;;;;;;;6.43;2.50;;;18.80;47.50;;;;;;5002105;28;20289;-45
2021/10/01 09:58:17;;;;;;;5.13;2.40;;;18.80;48.00;;;;;;5011125;28;20213;-44
2021/10/01 10:00:48;;;;;;;4.95;2.00;;;18.80;48.00;;;;;;5010821;28;20219;-46
2021/10/01 10:03:32;;;;;;;5.00;1.92;;;18.80;47.90;;;;;;5011236;28;20922;-43
2021/10/01 10:06:03;;;;;;;3.80;2.25;;;18.80;47.90;;;;;;5010367;28;20229;-47
2021/10/01 10:08:35;;;;;;;5.72;2.38;;;18.80;48.00;;;;;;5008280;28;20252;-44
2021/10/01 10:11:05;;;;;;;4.60;2.10;;;18.80;48.10;;;;;;5006493;28;21092;-43
2021/10/01 10:13:46;;;;;;;6.43;2.20;;;18.80;48.20;;;;;;5010645;28;20259;-44
2021/10/01 10:16:17;;;;;;;4.25;2.13;;;18.70;48.20;;;;;;5010484;28;20295;-44
2021/10/01 10:18:53;;;;;;;6.32;2.65;;;18.70;48.10;;;;;;5010701;28;20255;-44
2021/10/01 10:21:23;;;;;;;7.47;2.75;;;18.70;48.20;;;;;;5010960;28;20239;-47
2021/10/01 10:23:54;;;;;;;8.88;2.60;;;18.70;48.20;;;;;;5004631;28;20302;-46
2021/10/01 10:26:24;;;;;;;7.55;2.72;;;18.70;48.20;;;;;;5011090;28;20661;-47
2021/10/01 10:28:55;;;;;;;5.00;2.40;;;18.70;48.30;;;;;;5007508;28;20244;-44
2021/10/01 10:31:28;;;;;;;5.95;2.35;;;18.60;48.30;;;;;;5010133;28;20283;-47
2021/10/01 10:34:00;;;;;;;7.25;2.45;;;18.60;48.30;;;;;;4994771;28;20287;-44
2021/10/01 10:36:38;;;;;;;6.68;2.50;;;18.60;48.40;;;;;;5010764;28;20314;-43
2021/10/01 10:39:44;;;;;;;3.65;2.22;;;18.60;48.40;;;;;;5009456;28;20648;-43
2021/10/01 10:42:17;;;;;;;5.05;2.50;;;18.50;48.40;;;;;;5003985;28;20676;-43
2021/10/01 10:44:48;;;;;;;7.88;2.72;;;18.50;48.40;;;;;;4991444;28;20240;-44
2021/10/01 10:47:44;;;;;;;6.05;2.63;;;18.50;48.40;;;;;;5010216;28;20200;-43
2021/10/01 10:50:34;;;;;;;9.43;3.40;;;18.50;48.50;;;;;;5009742;28;20271;-44
2021/10/01 10:53:28;;;;;;;7.28;3.28;;;18.40;48.50;;;;;;5010325;28;20228;-43
2021/10/01 10:56:10;;;;;;;8.90;3.70;;;18.40;48.60;;;;;;5010746;28;20197;-45
2021/10/01 10:58:57;;;;;;;5.32;2.75;;;18.40;48.60;;;;;;5010106;28;20292;-41
2021/10/01 11:01:33;;;;;;;6.43;3.53;;;18.40;48.70;;;;;;5007955;28;20212;-42
2021/10/01 11:04:42;;;;;;;7.32;3.15;;;18.40;48.70;;;;;;5007228;28;20195;-45
2021/10/01 11:07:35;;;;;;;7.03;3.20;;;18.40;48.80;;;;;;5008564;28;20228;-45
2021/10/01 11:10:51;;;;;;;6.93;3.17;;;18.30;48.70;;;;;;5007750;28;20251;-43
2021/10/01 11:13:31;;;;;;;5.97;3.40;;;18.30;48.80;;;;;;4946266;29;20238;-44
2021/10/01 11:16:21;;;;;;;5.18;2.83;;;18.30;48.80;;;;;;4948420;29;20249;-43
2021/10/01 11:19:07;;;;;;;7.25;3.38;;;18.30;48.80;;;;;;4989137;28;20244;-46
2021/10/01 11:21:42;;;;;;;5.22;3.50;;;18.30;48.80;;;;;;5008746;28;20664;-41
2021/10/01 11:24:15;;;;;;;5.97;3.53;;;18.20;48.80;;;;;;5009738;28;20199;-45
2021/10/01 11:26:46;;;;;;;5.15;2.70;;;18.30;48.90;;;;;;5010797;28;20236;-41
2021/10/01 11:29:24;;;;;;;6.70;3.67;;;18.20;48.90;;;;;;5013448;28;20252;-49
2021/10/01 11:31:55;;;;;;;6.53;3.35;;;18.20;48.90;;;;;;5012080;28;20799;-43
2021/10/01 11:34:40;;;;;;;5.85;3.03;;;18.20;48.90;;;;;;5010953;28;20667;-42
2021/10/01 11:37:27;;;;;;;5.85;3.03;;;18.10;48.80;;;;;;5011613;28;20303;-46
2021/10/01 11:39:59;;;;;;;5.05;3.10;;;18.10;48.80;;;;;;5012554;28;20315;-44
2021/10/01 11:42:30;;;;;;;3.90;2.60;;;18.10;48.80;;;;;;5011214;28;20224;-42
2021/10/01 11:45:10;;;;;;;5.90;2.70;;;18.10;48.80;;;;;;5012559;28;20267;-42
2021/10/01 11:47:41;;;;;;;5.55;3.03;;;18.10;48.80;;;;;;5012668;28;20732;-41
2021/10/01 11:50:11;;;;;;;8.18;3.45;;;18.10;48.80;;;;;;5012761;28;20653;-48
2021/10/01 11:52:48;;;;;;;4.75;2.35;;;18.10;48.80;;;;;;5012765;28;20618;-44
2021/10/01 11:55:21;;;;;;;5.47;3.17;;;18.10;48.90;;;;;;5012502;28;20641;-43
2021/10/01 11:57:51;;;;;;;4.90;2.97;;;18.10;48.80;;;;;;5012726;28;20315;-44
2021/10/01 12:00:22;;;;;;;4.55;3.00;;;18.00;48.80;;;;;;5012329;28;20255;-42
2021/10/01 12:02:53;;;;;;;4.30;2.50;;;18.00;48.70;;;;;;5012376;28;20225;-45
2021/10/01 12:05:31;;;;;;;4.72;2.70;;;18.00;48.80;;;;;;5010105;28;20196;-41
2021/10/01 12:08:02;;;;;;;4.38;2.90;;;18.00;48.80;;;;;;5014001;28;20657;-42
2021/10/01 12:10:35;;;;;;;6.30;2.42;;;18.00;48.80;;;;;;5013719;28;20257;-45
2021/10/01 12:13:07;;;;;;;5.47;2.83;;;18.00;48.80;;;;;;5013338;28;20243;-44
2021/10/01 12:15:48;;;;;;;4.18;2.50;;;18.00;48.80;;;;;;5012893;28;20239;-47
2021/10/01 12:18:32;;;;;;;5.00;2.70;;;17.90;48.80;;;;;;5013416;28;20315;-47
2021/10/01 12:21:04;;;;;;;3.58;2.35;;;17.90;48.90;;;;;;5014002;28;20275;-50
2021/10/01 12:23:35;;;;;;;5.10;2.70;;;17.90;48.80;;;;;;5013836;28;20255;-44
2021/10/01 12:26:25;;;;;;;3.08;2.47;;;17.90;48.80;;;;;;5013410;28;20205;-42
2021/10/01 12:29:10;;;;;;;5.30;2.67;;;17.90;48.90;;;;;;5013640;28;20256;-42
2021/10/01 12:31:48;;;;;;;4.47;2.55;;;17.90;48.90;;;;;;5013769;28;20225;-44
2021/10/01 12:34:20;;;;;;;4.47;2.67;;;17.90;48.90;;;;;;5012983;28;20243;-42
2021/10/01 12:36:52;;;;;;;3.60;2.40;;;17.90;48.90;;;;;;5012689;28;20240;-43
2021/10/01 12:39:24;;;;;;;4.75;2.60;;;17.90;48.90;;;;;;5013374;28;20252;-42
2021/10/01 12:42:00;;;;;;;3.20;2.35;;;17.80;48.80;;;;;;5013236;28;20203;-41
2021/10/01 12:44:32;;;;;;;5.70;2.42;;;17.80;48.80;;;;;;5013064;28;20243;-43
2021/10/01 12:47:12;;;;;;;3.80;2.83;;;17.80;48.80;;;;;;5012956;28;20226;-43
2021/10/01 12:49:42;;;;;;;2.88;2.20;;;17.80;48.90;;;;;;5013012;28;20560;-42
2021/10/01 12:52:17;;;;;;;3.55;2.55;;;17.80;48.90;;;;;;5012997;28;20677;-43
2021/10/01 12:54:48;;;;;;;4.28;2.00;;;17.80;48.90;;;;;;5013152;28;20299;-44
2021/10/01 12:57:27;;;;;;;4.93;2.65;;;17.80;48.90;;;;;;5012905;28;20259;-44
2021/10/01 12:59:58;;;;;;;5.45;2.70;;;17.70;49.00;;;;;;5013011;28;20220;-41
2021/10/01 13:02:28;;;;;;;3.08;2.35;;;17.80;48.90;;;;;;5012646;28;20287;-41
2021/10/01 13:05:01;;;;;;;4.25;2.20;;;17.70;48.90;;;;;;5012329;28;20231;-43
2021/10/01 13:07:36;;;;;;;5.10;2.40;;;17.70;48.90;;;;;;5012578;28;20284;-44
2021/10/01 13:10:21;;;;;;;4.32;2.58;;;17.70;49.00;;;;;;5012667;28;20626;-40
2021/10/01 13:12:57;;;;;;;4.35;2.38;;;17.70;49.00;;;;;;5011165;28;20287;-47
2021/10/01 13:15:32;;;;;;;3.55;2.22;;;17.70;49.00;;;;;;5012632;28;20192;-43
2021/10/01 13:18:09;;;;;;;4.32;2.47;;;17.70;49.00;;;;;;5012545;28;20639;-48
2021/10/01 13:20:40;;;;;;;4.45;2.50;;;17.70;49.00;;;;;;5012885;28;20275;-42
2021/10/01 13:23:11;;;;;;;3.13;2.20;;;17.70;49.00;;;;;;5012284;28;20719;-41
2021/10/01 13:25:45;;;;;;;3.88;2.08;;;17.70;48.90;;;;;;5011946;28;20334;-41
2021/10/01 13:28:18;;;;;;;3.20;1.98;;;17.60;48.90;;;;;;5012040;28;20239;-44
2021/10/01 13:30:48;;;;;;;4.50;2.00;;;17.60;48.90;;;;;;5011708;28;20224;-44
2021/10/01 13:33:19;;;;;;;3.80;2.38;;;17.60;48.90;;;;;;5001686;28;20613;-42
2021/10/01 13:35:49;;;;;;;4.97;2.70;;;17.60;48.90;;;;;;5012307;28;20703;-45
2021/10/01 13:38:27;;;;;;;3.13;2.08;;;17.60;49.00;;;;;;5011869;28;20634;-43
2021/10/01 13:40:57;;;;;;;3.33;2.25;;;17.60;49.00;;;;;;5011989;28;20637;-43
2021/10/01 13:43:29;;;;;;;3.60;2.13;;;17.50;49.00;;;;;;5012283;28;20236;-41
2021/10/01 13:46:00;;;;;;;4.30;2.47;;;17.50;49.00;;;;;;5012029;28;20232;-42
2021/10/01 13:48:30;;;;;;;4.13;2.42;;;17.50;49.00;;;;;;5011473;28;20254;-42
2021/10/01 13:51:01;;;;;;;2.17;1.70;;;17.50;49.00;;;;;;5012223;28;20224;-44
2021/10/01 13:53:31;;;;;;;3.88;2.22;;;17.50;49.00;;;;;;5011872;28;20232;-40
2021/10/01 13:56:02;;;;;;;2.97;2.08;;;17.50;49.00;;;;;;5012206;28;20228;-40
2021/10/01 13:58:34;;;;;;;3.53;2.20;;;17.50;49.00;;;;;;5011958;28;20255;-43
2021/10/01 14:01:04;;;;;;;2.92;1.92;;;17.50;49.00;;;;;;5011987;28;20243;-44
2021/10/01 14:03:35;;;;;;;3.67;2.05;;;17.50;49.00;;;;;;5012214;28;20292;-41
2021/10/01 14:06:05;;;;;;;3.70;2.30;;;17.50;49.00;;;;;;5012042;28;20280;-42
2021/10/01 14:08:40;;;;;;;3.40;1.90;;;17.40;49.00;;;;;;5011747;28;20248;-44
2021/10/01 14:11:10;;;;;;;2.75;2.05;;;17.40;49.00;;;;;;5011288;28;20607;-42
2021/10/01 14:13:42;;;;;;;2.83;2.03;;;17.40;49.00;;;;;;4992135;28;20669;-46
2021/10/01 14:16:13;;;;;;;3.15;2.00;;;17.40;49.00;;;;;;4992076;28;20229;-44
2021/10/01 14:18:43;;;;;;;3.15;2.30;;;17.40;49.00;;;;;;4991867;28;20808;-45
2021/10/01 14:21:14;;;;;;;2.80;1.63;;;17.30;49.00;;;;;;4992795;28;20240;-44
2021/10/01 14:23:45;;;;;;;4.05;2.30;;;17.40;49.00;;;;;;4992608;28;20653;-40
2021/10/01 14:26:15;;;;;;;2.20;1.70;;;17.30;49.00;;;;;;4992642;28;20193;-42
2021/10/01 14:28:47;;;;;;;2.95;2.00;;;17.30;49.00;;;;;;4999323;28;20205;-41
2021/10/01 14:31:18;;;;;;;3.00;1.80;;;17.30;49.10;;;;;;5011888;28;20263;-41
2021/10/01 14:33:48;;;;;;;4.55;1.88;;;17.30;49.00;;;;;;5011727;28;20228;-42
2021/10/01 14:36:19;;;;;;;3.28;2.03;;;17.30;49.00;;;;;;5011552;28;20243;-39
2021/10/01 14:38:49;;;;;;;4.15;2.08;;;17.20;49.10;;;;;;5010717;28;20255;-42
2021/10/01 14:41:19;;;;;;;2.53;1.98;;;17.20;49.00;;;;;;5011179;28;20288;-43
2021/10/01 14:43:52;;;;;;;2.95;1.70;;;17.20;49.00;;;;;;5011052;28;20299;-40